createdAt,value
2022-12-15T00:00:51.338Z,3.20
2022-12-15T00:03:38.711Z,3.37
2022-12-15T00:06:26.188Z,3.65
2022-12-15T00:09:14.637Z,2.87
2022-12-15T00:12:03.120Z,3.62
2022-12-15T00:14:50.375Z,3.30
2022-12-15T00:17:38.018Z,3.63
2022-12-15T00:20:26.292Z,4.33
2022-12-15T00:23:13.841Z,3.90
2022-12-15T00:26:02.995Z,3.98
2022-12-15T00:28:50.194Z,4.37
2022-12-15T00:31:37.849Z,4.85
2022-12-15T00:34:25.138Z,4.05
2022-12-15T00:37:12.450Z,4.03
2022-12-15T00:39:41.899Z,4.10
2022-12-15T00:42:12.303Z,3.27
2022-12-15T00:44:42.020Z,5.35
2022-12-15T00:47:11.498Z,6.17
2022-12-15T00:49:58.570Z,4.97
2022-12-15T00:52:46.341Z,4.42
2022-12-15T00:55:33.704Z,4.37
2022-12-15T00:58:21.052Z,4.45
2022-12-15T01:01:08.745Z,4.53
2022-12-15T01:03:56.224Z,5.20
2022-12-15T01:06:43.821Z,5.33
2022-12-15T01:09:32.707Z,4.50
2022-12-15T01:12:19.972Z,3.75
2022-12-15T01:15:07.584Z,3.75
2022-12-15T01:17:54.841Z,3.27
2022-12-15T01:20:24.306Z,3.60
2022-12-15T01:22:56.880Z,3.55
2022-12-15T01:25:28.093Z,3.90
2022-12-15T01:27:57.782Z,3.55
2022-12-15T01:30:28.574Z,5.00
2022-12-15T01:32:58.140Z,4.85
2022-12-15T01:35:27.758Z,4.30
2022-12-15T01:37:57.247Z,4.10
2022-12-15T01:40:44.623Z,3.83
2022-12-15T01:43:20.958Z,3.17
2022-12-15T01:46:01.485Z,4.65
2022-12-15T01:48:35.895Z,5.22
2022-12-15T01:51:18.733Z,5.67
2022-12-15T01:53:52.806Z,6.28
2022-12-15T01:56:25.909Z,4.85
2022-12-15T01:59:00.215Z,5.20
2022-12-15T02:01:30.557Z,3.97
2022-12-15T02:04:00.151Z,4.40
2022-12-15T02:06:31.170Z,4.30
2022-12-15T02:09:02.443Z,4.20
2022-12-15T02:11:45.521Z,4.00
2022-12-15T02:14:28.494Z,3.83
2022-12-15T02:17:23.797Z,4.12
2022-12-15T02:20:24.978Z,4.17
2022-12-15T02:23:19.189Z,4.58
2022-12-15T02:26:20.631Z,4.83
2022-12-15T02:29:35.502Z,4.20
2022-12-15T02:32:25.009Z,3.70
2022-12-15T02:35:10.521Z,5.75
2022-12-15T02:37:42.378Z,4.83
2022-12-15T02:40:12.617Z,4.55
2022-12-15T02:42:46.713Z,6.47
2022-12-15T02:45:26.761Z,5.40
2022-12-15T02:48:26.144Z,5.33
2022-12-15T02:51:23.768Z,4.90
2022-12-15T02:54:06.428Z,4.17
2022-12-15T02:56:49.610Z,4.37
2022-12-15T02:59:59.649Z,4.62
2022-12-15T03:02:34.705Z,4.80
2022-12-15T03:05:05.351Z,4.28
2022-12-15T03:07:34.819Z,4.22
2022-12-15T03:10:07.116Z,3.92
2022-12-15T03:12:37.270Z,4.08
2022-12-15T03:15:08.392Z,5.70
2022-12-15T03:17:38.472Z,4.83
2022-12-15T03:20:09.006Z,4.37
2022-12-15T03:22:39.610Z,3.83
2022-12-15T03:25:09.619Z,3.70
2022-12-15T03:27:39.083Z,3.75
2022-12-15T03:30:09.679Z,3.75
2022-12-15T03:32:39.152Z,4.60
2022-12-15T03:35:09.608Z,5.65
2022-12-15T03:37:39.076Z,4.97
2022-12-15T03:40:10.375Z,4.30
2022-12-15T03:42:48.885Z,4.72
2022-12-15T03:45:25.574Z,4.00
2022-12-15T03:47:57.051Z,3.27
2022-12-15T03:50:30.375Z,3.53
2022-12-15T03:53:02.984Z,3.40
2022-12-15T03:55:32.977Z,3.07
2022-12-15T03:58:02.830Z,2.67
2022-12-15T04:00:32.335Z,2.27
2022-12-15T04:03:02.265Z,2.87
2022-12-15T04:05:35.199Z,2.60
2022-12-15T04:08:04.932Z,5.35
2022-12-15T04:10:36.599Z,3.63
2022-12-15T04:13:09.490Z,3.37
2022-12-15T04:15:41.251Z,3.40
2022-12-15T04:18:12.150Z,3.17
2022-12-15T04:20:42.182Z,3.10
2022-12-15T04:23:11.630Z,2.93
2022-12-15T04:25:59.375Z,2.73
2022-12-15T04:28:46.391Z,2.70
2022-12-15T04:31:38.747Z,3.43
2022-12-15T04:34:30.672Z,3.25
2022-12-15T04:37:18.090Z,3.00
2022-12-15T04:40:09.342Z,6.20
2022-12-15T04:43:01.074Z,4.77
2022-12-15T04:45:48.929Z,3.50
2022-12-15T04:48:36.398Z,3.43
2022-12-15T04:51:24.217Z,3.05
2022-12-15T04:54:11.449Z,3.20
2022-12-15T04:56:59.067Z,3.47
2022-12-15T04:59:46.591Z,2.73
2022-12-15T05:02:34.174Z,3.63
2022-12-15T05:05:21.690Z,3.07
2022-12-15T05:08:09.206Z,4.13
2022-12-15T05:10:56.763Z,3.50
2022-12-15T05:13:43.753Z,3.40
2022-12-15T05:16:30.931Z,3.40
2022-12-15T05:19:18.514Z,2.90
2022-12-15T05:22:06.043Z,2.90
2022-12-15T05:24:53.470Z,6.10
2022-12-15T05:27:41.169Z,5.13
2022-12-15T05:30:29.544Z,3.90
2022-12-15T05:32:59.085Z,3.50
2022-12-15T05:35:28.530Z,3.20
2022-12-15T05:37:58.072Z,2.90
2022-12-15T05:40:27.522Z,2.80
2022-12-15T05:43:01.753Z,4.50
2022-12-15T05:45:31.208Z,3.93
2022-12-15T05:48:00.669Z,3.23
2022-12-15T05:50:30.123Z,3.43
2022-12-15T05:53:01.740Z,3.30
2022-12-15T05:55:31.567Z,3.60
2022-12-15T05:58:01.020Z,3.60
2022-12-15T06:00:30.472Z,3.20
2022-12-15T06:03:00.351Z,3.40
2022-12-15T06:05:30.217Z,3.60
2022-12-15T06:08:01.351Z,2.77
2022-12-15T06:10:30.799Z,2.60
2022-12-15T06:13:00.245Z,2.63
2022-12-15T06:15:29.696Z,3.20
2022-12-15T06:17:59.152Z,2.80
2022-12-15T06:20:28.970Z,3.30
2022-12-15T06:22:58.732Z,3.10
2022-12-15T06:25:28.176Z,3.20
2022-12-15T06:28:01.688Z,3.43
2022-12-15T06:30:28.817Z,4.20
2022-12-15T06:32:58.437Z,3.60
2022-12-15T06:35:27.886Z,3.37
2022-12-15T06:37:57.341Z,2.67
2022-12-15T06:40:26.791Z,3.20
2022-12-15T06:42:56.248Z,3.60
2022-12-15T06:45:25.685Z,3.33
2022-12-15T06:47:59.617Z,2.57
2022-12-15T06:50:26.326Z,3.40
2022-12-15T06:52:55.829Z,2.87
2022-12-15T06:55:25.270Z,2.83
2022-12-15T06:57:54.737Z,2.83
2022-12-15T07:00:24.333Z,2.63
2022-12-15T07:02:54.140Z,3.67
2022-12-15T07:05:24.199Z,4.20
2022-12-15T07:07:54.243Z,4.70
2022-12-15T07:10:24.237Z,3.53
2022-12-15T07:12:53.762Z,3.70
2022-12-15T07:15:23.234Z,5.17
2022-12-15T07:17:56.619Z,4.03
2022-12-15T07:20:28.907Z,3.70
2022-12-15T07:22:57.467Z,2.90
2022-12-15T07:25:26.982Z,3.80
2022-12-15T07:27:56.450Z,5.10
2022-12-15T07:30:25.900Z,4.53
2022-12-15T07:32:55.372Z,4.13
2022-12-15T07:35:24.820Z,4.37
2022-12-15T07:37:54.278Z,4.42
2022-12-15T07:40:23.746Z,3.70
2022-12-15T07:42:53.567Z,3.50
2022-12-15T07:45:23.029Z,3.93
2022-12-15T07:47:53.534Z,3.30
2022-12-15T07:50:22.998Z,5.05
2022-12-15T07:52:53.125Z,3.93
2022-12-15T07:55:43.320Z,3.62
2022-12-15T07:57:53.843Z,3.65
2022-12-15T08:00:23.301Z,4.25
2022-12-15T08:02:53.031Z,4.00
2022-12-15T08:05:23.659Z,5.10
2022-12-15T08:07:53.122Z,5.35
2022-12-15T08:10:22.594Z,4.53
2022-12-15T08:12:52.033Z,3.70
2022-12-15T08:15:21.507Z,5.00
2022-12-15T08:17:51.325Z,5.40
2022-12-15T08:20:20.787Z,5.77
2022-12-15T08:22:50.249Z,5.40
2022-12-15T08:25:19.706Z,4.90
2022-12-15T08:27:52.610Z,4.90
2022-12-15T08:30:22.633Z,4.63
2022-12-15T08:32:52.303Z,3.93
2022-12-15T08:35:54.705Z,3.73
2022-12-15T08:37:55.386Z,3.40
2022-12-15T08:40:26.160Z,3.77
2022-12-15T08:42:55.961Z,3.67
2022-12-15T08:45:25.836Z,3.50
2022-12-15T08:47:57.415Z,3.70
2022-12-15T08:50:26.883Z,3.37
2022-12-15T08:53:28.996Z,3.20
2022-12-15T08:55:27.607Z,3.12
2022-12-15T08:57:57.423Z,3.27
2022-12-15T09:00:26.884Z,3.33
2022-12-15T09:02:56.324Z,3.47
2022-12-15T09:05:25.793Z,3.37
2022-12-15T09:08:04.646Z,2.87
2022-12-15T09:10:30.892Z,3.10
2022-12-15T09:13:01.522Z,2.77
2022-12-15T09:16:07.270Z,2.80
2022-12-15T09:18:02.162Z,3.17
2022-12-15T09:20:31.626Z,3.30
2022-12-15T09:23:01.066Z,3.30
2022-12-15T09:25:30.530Z,3.63
2022-12-15T09:27:59.985Z,3.23
2022-12-15T09:30:29.564Z,3.70
2022-12-15T09:32:59.008Z,5.03
2022-12-15T09:35:31.555Z,4.00
2022-12-15T09:38:01.012Z,3.80
2022-12-15T09:40:33.377Z,3.17
2022-12-15T09:43:33.013Z,4.00
2022-12-15T09:45:41.619Z,3.83
2022-12-15T09:48:23.708Z,3.63
2022-12-15T09:50:56.261Z,3.10
2022-12-15T09:53:54.041Z,5.03
2022-12-15T09:56:19.356Z,3.13
2022-12-15T09:59:05.487Z,3.00
2022-12-15T10:02:03.899Z,2.93
2022-12-15T10:04:57.386Z,4.20
2022-12-15T10:07:37.019Z,4.73
2022-12-15T10:10:19.088Z,4.23
2022-12-15T10:13:01.146Z,3.40
2022-12-15T10:15:28.017Z,3.47
2022-12-15T10:18:08.188Z,3.60
2022-12-15T10:20:38.143Z,4.70
2022-12-15T10:23:17.911Z,4.47
2022-12-15T10:26:03.588Z,5.20
2022-12-15T10:28:52.799Z,4.40
2022-12-15T10:31:41.841Z,3.77
2022-12-15T10:34:18.464Z,2.97
2022-12-15T10:36:56.051Z,3.53
2022-12-15T10:39:29.332Z,3.70
2022-12-15T10:42:15.078Z,3.00
2022-12-15T10:47:23.509Z,3.60
2022-12-15T10:49:54.185Z,3.73
2022-12-15T10:52:31.750Z,3.40
2022-12-15T10:55:01.577Z,3.57
2022-12-15T10:57:33.547Z,3.40
2022-12-15T11:00:19.529Z,3.20
2022-12-15T11:02:49.274Z,3.30
2022-12-15T11:05:20.338Z,4.30
2022-12-15T11:07:59.443Z,2.93
2022-12-15T11:10:50.526Z,3.17
2022-12-15T11:13:27.347Z,3.20
2022-12-15T11:15:56.653Z,4.43
2022-12-15T11:18:51.868Z,3.37
2022-12-15T11:21:43.123Z,4.00
2022-12-15T11:24:38.042Z,3.70
2022-12-15T11:27:18.001Z,4.20
2022-12-15T11:30:18.098Z,3.73
2022-12-15T11:32:55.815Z,3.90
2022-12-15T11:35:29.955Z,3.60
2022-12-15T11:38:12.856Z,3.53
2022-12-15T11:40:43.908Z,3.77
2022-12-15T11:43:43.320Z,3.13
2022-12-15T11:46:26.569Z,2.80
2022-12-15T11:49:03.583Z,2.97
2022-12-15T11:51:55.261Z,2.50
2022-12-15T11:54:41.536Z,3.60
2022-12-15T11:57:47.521Z,2.80
2022-12-15T12:00:23.727Z,2.30
2022-12-15T12:03:26.051Z,2.40
2022-12-15T12:06:20.367Z,2.70
2022-12-15T12:09:36.372Z,2.30
2022-12-15T12:12:26.251Z,2.20
2022-12-15T12:15:21.553Z,1.97
2022-12-15T12:17:58.499Z,2.33
2022-12-15T12:20:44.509Z,2.27
2022-12-15T12:23:30.695Z,3.10
2022-12-15T12:26:25.486Z,2.50
2022-12-15T12:29:42.730Z,3.13
2022-12-15T12:32:31.282Z,2.83
2022-12-15T12:35:31.937Z,2.33
2022-12-15T12:38:03.055Z,2.97
2022-12-15T12:40:59.631Z,3.10
2022-12-15T12:43:42.184Z,2.73
2022-12-15T12:46:19.102Z,4.63
2022-12-15T12:48:58.321Z,3.07
2022-12-15T12:51:43.130Z,3.03
2022-12-15T12:54:39.839Z,4.00
2022-12-15T12:57:22.552Z,3.50
2022-12-15T12:59:58.899Z,3.50
2022-12-15T13:02:34.723Z,4.40
2022-12-15T13:05:26.534Z,4.17
2022-12-15T13:08:13.468Z,3.80
2022-12-15T13:10:47.226Z,3.43
2022-12-15T13:13:40.876Z,2.93
2022-12-15T13:16:20.644Z,2.70
2022-12-15T13:19:10.300Z,2.30
2022-12-15T13:21:55.837Z,2.10
2022-12-15T13:24:33.161Z,2.20
2022-12-15T13:27:15.296Z,2.63
2022-12-15T13:30:12.067Z,3.00
2022-12-15T13:32:48.437Z,2.63
2022-12-15T13:35:24.563Z,2.57
2022-12-15T13:38:02.074Z,2.23
2022-12-15T13:40:39.063Z,2.37
2022-12-15T13:43:31.902Z,2.13
2022-12-15T13:46:05.959Z,2.97
2022-12-15T13:49:07.526Z,2.30
2022-12-15T13:51:42.007Z,2.90
2022-12-15T13:54:21.725Z,2.90
2022-12-15T13:57:07.413Z,2.90
2022-12-15T13:59:49.374Z,2.20
2022-12-15T14:02:34.652Z,2.47
2022-12-15T14:05:26.200Z,3.00
2022-12-15T14:08:00.590Z,2.83
2022-12-15T14:10:41.639Z,2.37
2022-12-15T14:13:27.418Z,2.70
2022-12-15T14:16:07.020Z,2.67
2022-12-15T14:18:40.764Z,2.03
2022-12-15T14:21:27.001Z,2.23
2022-12-15T14:24:28.804Z,2.03
2022-12-15T14:26:30.874Z,1.70
2022-12-15T14:29:06.521Z,1.63
2022-12-15T14:31:38.347Z,2.20
2022-12-15T14:34:21.343Z,2.90
2022-12-15T14:36:51.831Z,2.20
2022-12-15T14:39:29.368Z,2.40
2022-12-15T14:42:01.415Z,2.83
2022-12-15T14:44:39.318Z,2.83
2022-12-15T14:47:19.364Z,2.40
2022-12-15T14:49:49.513Z,2.20
2022-12-15T14:52:42.661Z,2.00
2022-12-15T14:55:37.121Z,2.03
2022-12-15T14:58:38.745Z,1.87
2022-12-15T15:01:40.381Z,2.37
2022-12-15T15:04:35.565Z,1.70
2022-12-15T15:07:09.417Z,1.90
2022-12-15T15:09:42.240Z,1.80
2022-12-15T15:12:25.070Z,2.57
2022-12-15T15:14:59.140Z,1.97
2022-12-15T15:17:38.596Z,2.23
2022-12-15T15:20:27.874Z,2.43
2022-12-15T15:23:20.829Z,2.00
2022-12-15T15:25:58.969Z,2.70
2022-12-15T15:28:38.647Z,2.30
2022-12-15T15:31:41.288Z,2.67
2022-12-15T15:34:07.849Z,2.03
2022-12-15T15:36:39.739Z,2.07
2022-12-15T15:39:17.904Z,2.73
2022-12-15T15:41:47.362Z,2.90
2022-12-15T15:44:17.740Z,2.70
2022-12-15T15:46:53.816Z,2.50
2022-12-15T15:49:24.540Z,2.07
2022-12-15T15:51:55.962Z,2.33
2022-12-15T15:54:30.142Z,1.80
2022-12-15T15:56:59.595Z,2.70
2022-12-15T15:59:29.058Z,2.80
2022-12-15T16:01:59.721Z,2.17
2022-12-15T16:04:29.303Z,1.90
2022-12-15T16:06:58.765Z,1.87
2022-12-15T16:09:28.206Z,2.10
2022-12-15T16:12:00.011Z,1.60
2022-12-15T16:14:29.452Z,2.00
2022-12-15T16:17:00.029Z,2.20
2022-12-15T16:19:32.639Z,1.90
2022-12-15T16:22:00.681Z,2.27
2022-12-15T16:24:30.158Z,2.30
2022-12-15T16:27:00.454Z,3.20
2022-12-15T16:29:29.907Z,2.60
2022-12-15T16:31:59.794Z,2.10
2022-12-15T16:34:29.259Z,2.73
2022-12-15T16:36:59.091Z,4.10
2022-12-15T16:39:34.884Z,3.33
2022-12-15T16:42:06.324Z,2.90
2022-12-15T16:44:35.769Z,2.73
2022-12-15T16:47:05.225Z,2.50
2022-12-15T16:49:40.048Z,2.10
2022-12-15T16:52:06.258Z,2.50
2022-12-15T16:54:35.687Z,2.67
2022-12-15T16:57:05.624Z,2.60
2022-12-15T16:59:36.818Z,2.43
2022-12-15T17:02:31.264Z,3.00
2022-12-15T17:05:00.800Z,2.87
2022-12-15T17:07:30.371Z,2.77
2022-12-15T17:09:59.985Z,2.70
2022-12-15T17:12:30.120Z,2.53
2022-12-15T17:15:01.212Z,2.00
2022-12-15T17:17:31.823Z,2.47
2022-12-15T17:22:33.331Z,3.00
2022-12-15T17:25:03.147Z,2.57
2022-12-15T17:27:32.646Z,2.60
2022-12-15T17:30:03.009Z,3.83
2022-12-15T17:32:32.497Z,3.53
2022-12-15T17:35:01.935Z,3.20
2022-12-15T17:37:35.278Z,3.00
2022-12-15T17:40:02.751Z,3.40
2022-12-15T17:42:32.598Z,3.13
2022-12-15T17:45:02.121Z,2.93
2022-12-15T17:47:31.577Z,3.10
2022-12-15T17:50:01.119Z,3.70
2022-12-15T17:52:35.818Z,3.37
2022-12-15T17:55:09.108Z,3.60
2022-12-15T17:57:38.558Z,2.93
2022-12-15T18:00:25.801Z,3.37
2022-12-15T18:02:58.270Z,4.37
2022-12-15T18:05:31.159Z,3.80
2022-12-15T18:08:04.885Z,2.97
2022-12-15T18:10:38.706Z,2.60
2022-12-15T18:13:35.441Z,2.17
2022-12-15T18:16:04.263Z,2.30
2022-12-15T18:18:34.934Z,2.00
2022-12-15T18:21:13.972Z,2.27
2022-12-15T18:23:45.703Z,1.83
2022-12-15T18:26:16.331Z,2.43
2022-12-15T18:28:45.789Z,2.23
2022-12-15T18:31:30.319Z,2.60
2022-12-15T18:34:04.469Z,2.43
2022-12-15T18:36:31.392Z,1.73
2022-12-15T18:39:02.608Z,2.20
2022-12-15T18:41:32.064Z,2.12
2022-12-15T18:44:01.583Z,3.50
2022-12-15T18:46:32.115Z,6.87
2022-12-15T18:49:01.589Z,4.90
2022-12-15T18:51:31.052Z,3.90
2022-12-15T18:54:01.394Z,3.53
2022-12-15T18:56:30.838Z,3.50
2022-12-15T18:59:00.289Z,3.27
2022-12-15T19:01:29.881Z,2.93
2022-12-15T19:03:59.895Z,3.33
2022-12-15T19:06:36.825Z,2.90
2022-12-15T19:09:23.130Z,4.90
2022-12-15T19:12:10.571Z,3.40
2022-12-15T19:14:43.426Z,2.80
2022-12-15T19:17:34.345Z,2.80
2022-12-15T19:20:23.778Z,2.50
2022-12-15T19:22:53.879Z,3.20
2022-12-15T19:25:27.895Z,3.07
2022-12-15T19:27:59.978Z,2.70
2022-12-15T19:30:40.199Z,2.60
2022-12-15T19:33:05.853Z,3.17
2022-12-15T19:35:35.531Z,2.57
2022-12-15T19:38:06.092Z,2.83
2022-12-15T19:40:37.842Z,2.53
2022-12-15T19:43:07.636Z,2.63
2022-12-15T19:45:37.137Z,2.10
2022-12-15T19:48:06.852Z,3.20
2022-12-15T19:50:39.263Z,3.17
2022-12-15T19:53:23.714Z,3.00
2022-12-15T19:55:57.458Z,2.83
2022-12-15T19:58:31.656Z,2.67
2022-12-15T20:01:11.083Z,3.40
2022-12-15T20:03:41.602Z,2.77
2022-12-15T20:06:26.982Z,3.00
2022-12-15T20:08:57.979Z,2.57
2022-12-15T20:11:32.074Z,2.67
2022-12-15T20:14:02.048Z,1.90
2022-12-15T20:16:31.537Z,1.97
2022-12-15T20:19:01.083Z,2.43
2022-12-15T20:21:35.116Z,2.30
2022-12-15T20:24:09.389Z,2.10
2022-12-15T20:26:40.543Z,2.50
2022-12-15T20:29:23.329Z,2.30
2022-12-15T20:31:54.295Z,2.60
2022-12-15T20:34:24.017Z,2.63
2022-12-15T20:36:53.537Z,3.17
2022-12-15T20:39:29.530Z,3.07
2022-12-15T20:41:59.141Z,3.00
2022-12-15T20:44:28.605Z,2.87
2022-12-15T20:46:58.053Z,2.87
2022-12-15T20:49:28.229Z,2.53
2022-12-15T20:51:57.709Z,2.33
2022-12-15T20:54:27.171Z,2.73
2022-12-15T20:56:56.619Z,2.53
2022-12-15T20:59:26.093Z,4.63
2022-12-15T21:01:55.870Z,4.33
2022-12-15T21:04:29.932Z,3.67
2022-12-15T21:06:59.643Z,4.57
2022-12-15T21:09:31.906Z,4.20
2022-12-15T21:12:07.365Z,3.30
2022-12-15T21:14:32.714Z,4.07
2022-12-15T21:17:02.255Z,4.07
2022-12-15T21:19:31.728Z,3.27
2022-12-15T21:22:02.448Z,3.30
2022-12-15T21:24:34.001Z,3.40
2022-12-15T21:27:04.119Z,3.13
2022-12-15T21:29:35.417Z,3.10
2022-12-15T21:32:04.935Z,3.80
2022-12-15T21:34:34.602Z,4.17
2022-12-15T21:37:05.258Z,3.93
2022-12-15T21:39:39.571Z,3.90
2022-12-15T21:42:16.282Z,4.60
2022-12-15T21:44:46.314Z,4.27
2022-12-15T21:47:30.182Z,4.60
2022-12-15T21:50:00.971Z,3.83
2022-12-15T21:52:30.454Z,3.60
2022-12-15T21:54:59.962Z,3.77
2022-12-15T21:57:29.824Z,3.77
2022-12-15T21:59:59.326Z,3.37
2022-12-15T22:02:29.182Z,3.55
2022-12-15T22:04:58.776Z,2.83
2022-12-15T22:07:28.247Z,2.90
2022-12-15T22:09:57.935Z,3.37
2022-12-15T22:12:28.077Z,2.90
2022-12-15T22:14:57.630Z,2.37
2022-12-15T22:17:27.307Z,2.50
2022-12-15T22:19:56.821Z,3.00
2022-12-15T22:22:31.617Z,2.83
2022-12-15T22:24:57.441Z,2.73
2022-12-15T22:27:27.296Z,2.80
2022-12-15T22:29:56.805Z,2.80
2022-12-15T22:32:26.313Z,2.70
2022-12-15T22:34:55.853Z,2.70
2022-12-15T22:37:25.304Z,2.33
2022-12-15T22:39:55.253Z,2.17
2022-12-15T22:42:24.749Z,2.67
2022-12-15T22:44:54.830Z,2.57
2022-12-15T22:47:24.258Z,2.57
2022-12-15T22:49:53.788Z,3.57
2022-12-15T22:52:24.109Z,3.17
2022-12-15T22:54:54.931Z,3.00
2022-12-15T22:57:28.303Z,3.27
2022-12-15T23:00:11.013Z,3.50
2022-12-15T23:02:45.038Z,3.20
2022-12-15T23:05:18.624Z,3.60
2022-12-15T23:07:48.412Z,2.90
2022-12-15T23:10:38.272Z,3.60
2022-12-15T23:13:08.075Z,3.30
2022-12-15T23:15:55.760Z,3.30
2022-12-15T23:18:25.261Z,3.47
2022-12-15T23:20:54.731Z,4.50
2022-12-15T23:23:25.827Z,4.10
2022-12-15T23:25:56.411Z,3.90
2022-12-15T23:28:26.376Z,3.47
2022-12-15T23:30:56.600Z,2.80
2022-12-15T23:33:28.600Z,2.67
2022-12-15T23:36:00.632Z,2.50
2022-12-15T23:38:31.080Z,3.00
2022-12-15T23:41:01.499Z,2.53
2022-12-15T23:43:34.768Z,2.70
2022-12-15T23:46:08.694Z,3.10
2022-12-15T23:48:42.101Z,3.00
2022-12-15T23:51:18.267Z,3.20
2022-12-15T23:53:49.354Z,3.00
2022-12-15T23:56:25.393Z,3.00
2022-12-15T23:59:00.304Z,3.03
